createdAt,value
2022-09-21T00:00:03.603Z,986.41
2022-09-21T00:01:03.737Z,986.38
2022-09-21T00:02:03.560Z,986.35
2022-09-21T00:03:03.564Z,986.38
2022-09-21T00:04:03.664Z,986.47
2022-09-21T00:05:03.586Z,986.38
2022-09-21T00:06:03.740Z,986.38
2022-09-21T00:07:03.759Z,986.41
2022-09-21T00:08:03.804Z,986.38
2022-09-21T00:09:02.867Z,986.41
2022-09-21T00:10:03.211Z,986.29
2022-09-21T00:11:03.320Z,986.35
2022-09-21T00:12:03.323Z,986.41
2022-09-21T00:13:02.886Z,986.32
2022-09-21T00:14:02.914Z,986.32
2022-09-21T00:15:03.029Z,986.35
2022-09-21T00:16:03.052Z,986.35
2022-09-21T00:17:03.070Z,986.47
2022-09-21T00:18:02.953Z,986.27
2022-09-21T00:19:02.915Z,986.27
2022-09-21T00:20:02.904Z,986.44
2022-09-21T00:21:03.041Z,986.38
2022-09-21T00:22:02.976Z,986.35
2022-09-21T00:23:03.019Z,986.44
2022-09-21T00:24:03.078Z,986.41
2022-09-21T00:25:03.121Z,986.55
2022-09-21T00:26:03.143Z,986.38
2022-09-21T00:27:03.123Z,986.33
2022-09-21T00:28:03.180Z,986.38
2022-09-21T00:29:03.234Z,986.53
2022-09-21T00:30:03.173Z,986.44
2022-09-21T00:31:03.099Z,986.44
2022-09-21T00:32:03.063Z,986.47
2022-09-21T00:33:02.988Z,986.36
2022-09-21T00:34:04.046Z,986.47
2022-09-21T00:35:03.899Z,986.50
2022-09-21T00:36:03.770Z,986.39
2022-09-21T00:37:03.763Z,986.36
2022-09-21T00:38:02.906Z,986.39
2022-09-21T00:39:02.925Z,986.42
2022-09-21T00:40:03.421Z,986.53
2022-09-21T00:41:03.446Z,986.30
2022-09-21T00:42:03.519Z,986.42
2022-09-21T00:43:03.496Z,986.33
2022-09-21T00:44:03.482Z,986.30
2022-09-21T00:45:03.471Z,986.36
2022-09-21T00:46:03.421Z,986.36
2022-09-21T00:47:03.481Z,986.36
2022-09-21T00:48:03.025Z,986.30
2022-09-21T00:49:03.023Z,986.44
2022-09-21T00:50:02.999Z,986.47
2022-09-21T00:51:02.975Z,986.50
2022-09-21T00:52:03.017Z,986.30
2022-09-21T00:53:03.092Z,986.50
2022-09-21T00:54:03.082Z,986.30
2022-09-21T00:55:03.008Z,986.47
2022-09-21T00:56:03.083Z,986.47
2022-09-21T00:57:03.241Z,986.53
2022-09-21T00:58:03.217Z,986.42
2022-09-21T00:59:03.193Z,986.42
2022-09-21T01:00:03.345Z,986.47
2022-09-21T01:01:03.422Z,986.42
2022-09-21T01:02:03.263Z,986.56
2022-09-21T01:03:03.337Z,986.47
2022-09-21T01:04:03.411Z,986.53
2022-09-21T01:05:03.387Z,986.53
2022-09-21T01:06:03.528Z,986.47
2022-09-21T01:07:03.501Z,986.53
2022-09-21T01:08:03.580Z,986.58
2022-09-21T01:09:03.604Z,986.56
2022-09-21T01:10:03.541Z,986.47
2022-09-21T01:11:03.562Z,986.56
2022-09-21T01:12:03.607Z,986.53
2022-09-21T01:13:03.530Z,986.56
2022-09-21T01:14:03.684Z,986.42
2022-09-21T01:15:03.713Z,986.58
2022-09-21T01:16:03.850Z,986.61
2022-09-21T01:17:03.342Z,986.56
2022-09-21T01:18:03.294Z,986.58
2022-09-21T01:19:03.413Z,986.56
2022-09-21T01:20:03.596Z,986.63
2022-09-21T01:21:03.816Z,986.47
2022-09-21T01:22:03.863Z,986.72
2022-09-21T01:23:03.868Z,986.61
2022-09-21T01:24:03.873Z,986.63
2022-09-21T01:25:03.852Z,986.66
2022-09-21T01:26:02.892Z,986.61
2022-09-21T01:27:02.976Z,986.69
2022-09-21T01:28:02.977Z,986.58
2022-09-21T01:29:02.937Z,986.63
2022-09-21T01:30:03.599Z,986.69
2022-09-21T01:31:03.504Z,986.63
2022-09-21T01:32:03.704Z,986.83
2022-09-21T01:33:03.510Z,986.75
2022-09-21T01:34:03.579Z,986.63
2022-09-21T01:35:03.597Z,986.75
2022-09-21T01:36:03.660Z,986.75
2022-09-21T01:37:03.587Z,986.72
2022-09-21T01:38:03.593Z,986.66
2022-09-21T01:39:03.531Z,986.66
2022-09-21T01:40:03.748Z,986.58
2022-09-21T01:41:03.589Z,986.72
2022-09-21T01:42:03.579Z,986.66
2022-09-21T01:43:03.807Z,986.75
2022-09-21T01:44:03.876Z,986.53
2022-09-21T01:45:02.919Z,986.58
2022-09-21T01:46:02.939Z,986.75
2022-09-21T01:47:02.973Z,986.58
2022-09-21T01:48:03.048Z,986.72
2022-09-21T01:49:03.388Z,986.56
2022-09-21T01:50:03.430Z,986.61
2022-09-21T01:51:03.464Z,986.61
2022-09-21T01:52:03.457Z,986.56
2022-09-21T01:53:03.462Z,986.80
2022-09-21T01:54:03.513Z,986.53
2022-09-21T01:55:03.513Z,986.66
2022-09-21T01:56:03.377Z,986.50
2022-09-21T01:57:03.430Z,986.72
2022-09-21T01:58:03.332Z,986.75
2022-09-21T01:59:03.405Z,986.72
2022-09-21T02:00:03.319Z,986.81
2022-09-21T02:01:03.425Z,986.64
2022-09-21T02:02:03.513Z,986.75
2022-09-21T02:03:03.428Z,986.81
2022-09-21T02:04:03.523Z,986.69
2022-09-21T02:05:03.467Z,986.75
2022-09-21T02:06:03.496Z,986.81
2022-09-21T02:07:03.352Z,986.69
2022-09-21T02:08:03.420Z,986.64
2022-09-21T02:09:03.510Z,986.69
2022-09-21T02:10:03.474Z,986.75
2022-09-21T02:11:03.386Z,986.81
2022-09-21T02:12:03.437Z,986.78
2022-09-21T02:13:03.455Z,986.72
2022-09-21T02:14:03.345Z,986.67
2022-09-21T02:15:03.313Z,986.72
2022-09-21T02:16:03.429Z,986.61
2022-09-21T02:17:03.358Z,986.75
2022-09-21T02:18:03.353Z,986.78
2022-09-21T02:19:03.341Z,986.72
2022-09-21T02:20:03.337Z,986.72
2022-09-21T02:21:03.307Z,986.72
2022-09-21T02:22:03.336Z,986.89
2022-09-21T02:23:03.280Z,986.84
2022-09-21T02:24:03.359Z,986.84
2022-09-21T02:25:03.433Z,986.84
2022-09-21T02:26:03.343Z,986.87
2022-09-21T02:27:03.407Z,986.89
2022-09-21T02:28:03.315Z,986.84
2022-09-21T02:29:03.352Z,986.87
2022-09-21T02:30:03.421Z,986.95
2022-09-21T02:31:03.707Z,986.78
2022-09-21T02:32:03.395Z,986.84
2022-09-21T02:33:03.469Z,986.70
2022-09-21T02:34:03.522Z,986.87
2022-09-21T02:35:03.445Z,986.90
2022-09-21T02:36:03.484Z,986.75
2022-09-21T02:37:03.438Z,986.84
2022-09-21T02:38:03.372Z,986.70
2022-09-21T02:39:03.370Z,986.78
2022-09-21T02:40:03.617Z,986.78
2022-09-21T02:41:03.465Z,986.78
2022-09-21T02:42:03.539Z,986.95
2022-09-21T02:43:03.483Z,986.81
2022-09-21T02:44:03.539Z,986.73
2022-09-21T02:45:03.836Z,986.70
2022-09-21T02:46:02.887Z,986.76
2022-09-21T02:47:02.902Z,986.78
2022-09-21T02:48:03.146Z,986.81
2022-09-21T02:49:03.127Z,986.84
2022-09-21T02:50:03.321Z,986.78
2022-09-21T02:51:03.043Z,986.73
2022-09-21T02:52:03.167Z,986.84
2022-09-21T02:53:03.190Z,986.87
2022-09-21T02:54:03.263Z,986.95
2022-09-21T02:55:03.209Z,986.87
2022-09-21T02:56:03.278Z,986.87
2022-09-21T02:57:03.228Z,986.93
2022-09-21T02:58:03.239Z,986.84
2022-09-21T02:59:03.149Z,986.76
2022-09-21T03:00:03.155Z,986.95
2022-09-21T03:01:03.293Z,986.95
2022-09-21T03:02:03.269Z,986.73
2022-09-21T03:03:03.176Z,986.81
2022-09-21T03:04:03.156Z,986.93
2022-09-21T03:05:03.190Z,986.73
2022-09-21T03:06:03.167Z,986.96
2022-09-21T03:07:03.220Z,986.93
2022-09-21T03:08:03.283Z,986.93
2022-09-21T03:09:03.371Z,986.93
2022-09-21T03:10:03.415Z,986.96
2022-09-21T03:11:03.338Z,986.90
2022-09-21T03:12:03.603Z,986.84
2022-09-21T03:13:03.765Z,986.82
2022-09-21T03:14:03.636Z,986.84
2022-09-21T03:15:03.596Z,986.84
2022-09-21T03:16:03.733Z,987.01
2022-09-21T03:17:03.678Z,986.84
2022-09-21T03:18:03.535Z,986.87
2022-09-21T03:19:03.656Z,986.85
2022-09-21T03:20:03.741Z,986.85
2022-09-21T03:21:03.753Z,987.16
2022-09-21T03:22:03.783Z,987.01
2022-09-21T03:23:04.005Z,986.90
2022-09-21T03:24:03.854Z,986.85
2022-09-21T03:25:03.026Z,986.90
2022-09-21T03:26:03.542Z,986.93
2022-09-21T03:27:03.468Z,986.87
2022-09-21T03:28:03.565Z,987.01
2022-09-21T03:29:03.568Z,986.96
2022-09-21T03:30:03.598Z,986.85
2022-09-21T03:31:03.889Z,986.96
2022-09-21T03:32:03.745Z,987.07
2022-09-21T03:33:03.767Z,986.88
2022-09-21T03:34:03.905Z,986.93
2022-09-21T03:35:03.882Z,987.04
2022-09-21T03:36:03.300Z,987.04
2022-09-21T03:37:03.550Z,986.93
2022-09-21T03:38:03.595Z,987.02
2022-09-21T03:39:03.688Z,986.99
2022-09-21T03:40:03.851Z,986.99
2022-09-21T03:41:03.787Z,987.13
2022-09-21T03:42:03.840Z,986.93
2022-09-21T03:43:03.819Z,986.99
2022-09-21T03:44:02.950Z,987.05
2022-09-21T03:45:04.849Z,986.85
2022-09-21T03:46:03.899Z,987.08
2022-09-21T03:47:03.816Z,986.88
2022-09-21T03:48:02.952Z,986.96
2022-09-21T03:49:03.874Z,986.99
2022-09-21T03:50:09.761Z,987.13
2022-09-21T03:51:02.936Z,987.02
2022-09-21T03:52:02.901Z,987.16
2022-09-21T03:53:03.881Z,986.99
2022-09-21T03:54:03.959Z,987.08
2022-09-21T03:55:03.870Z,986.96
2022-09-21T03:56:03.890Z,987.08
2022-09-21T03:57:03.868Z,987.05
2022-09-21T03:58:03.877Z,987.02
2022-09-21T03:59:03.899Z,986.99
2022-09-21T04:00:03.930Z,987.25
2022-09-21T04:01:03.940Z,987.19
2022-09-21T04:02:02.957Z,987.08
2022-09-21T04:03:03.912Z,987.14
2022-09-21T04:04:02.931Z,987.19
2022-09-21T04:05:02.970Z,987.19
2022-09-21T04:06:02.947Z,987.08
2022-09-21T04:07:03.089Z,987.16
2022-09-21T04:08:03.067Z,987.02
2022-09-21T04:09:03.199Z,987.16
2022-09-21T04:10:03.201Z,987.22
2022-09-21T04:11:03.260Z,987.02
2022-09-21T04:12:03.151Z,987.02
2022-09-21T04:13:03.587Z,987.08
2022-09-21T04:14:03.587Z,987.16
2022-09-21T04:15:03.701Z,987.22
2022-09-21T04:16:03.750Z,987.19
2022-09-21T04:17:03.743Z,987.22
2022-09-21T04:18:03.662Z,987.11
2022-09-21T04:19:03.652Z,987.25
2022-09-21T04:20:03.654Z,987.16
2022-09-21T04:21:03.750Z,987.28
2022-09-21T04:22:03.915Z,987.14
2022-09-21T04:23:02.903Z,987.16
2022-09-21T04:24:02.918Z,987.25
2022-09-21T04:25:04.165Z,987.17
2022-09-21T04:26:03.297Z,987.28
2022-09-21T04:27:03.341Z,987.14
2022-09-21T04:28:03.819Z,987.19
2022-09-21T04:29:03.792Z,987.19
2022-09-21T04:30:03.840Z,987.42
2022-09-21T04:31:03.855Z,987.17
2022-09-21T04:32:03.861Z,987.20
2022-09-21T04:33:03.836Z,987.17
2022-09-21T04:34:03.880Z,987.14
2022-09-21T04:35:02.894Z,987.11
2022-09-21T04:36:03.012Z,987.20
2022-09-21T04:37:03.009Z,987.39
2022-09-21T04:38:03.196Z,987.17
2022-09-21T04:39:03.182Z,987.28
2022-09-21T04:40:03.339Z,987.14
2022-09-21T04:41:03.241Z,987.17
2022-09-21T04:42:03.336Z,987.31
2022-09-21T04:43:03.306Z,987.37
2022-09-21T04:44:03.342Z,987.37
2022-09-21T04:45:03.345Z,987.26
2022-09-21T04:46:03.218Z,987.17
2022-09-21T04:47:03.212Z,987.17
2022-09-21T04:48:03.275Z,987.17
2022-09-21T04:49:03.303Z,987.26
2022-09-21T04:50:03.381Z,987.12
2022-09-21T04:51:03.535Z,987.23
2022-09-21T04:52:03.527Z,987.34
2022-09-21T04:53:03.452Z,987.37
2022-09-21T04:54:03.477Z,987.17
2022-09-21T04:55:03.566Z,987.29
2022-09-21T04:56:03.847Z,987.29
2022-09-21T04:57:03.761Z,987.23
2022-09-21T04:58:03.677Z,987.15
2022-09-21T04:59:03.745Z,987.29
2022-09-21T05:00:03.710Z,987.46
2022-09-21T05:01:03.892Z,987.40
2022-09-21T05:02:03.814Z,987.34
2022-09-21T05:03:03.477Z,987.17
2022-09-21T05:04:03.517Z,987.37
2022-09-21T05:05:03.609Z,987.20
2022-09-21T05:06:03.625Z,987.32
2022-09-21T05:07:03.736Z,987.32
2022-09-21T05:08:03.814Z,987.34
2022-09-21T05:09:03.795Z,987.40
2022-09-21T05:10:03.936Z,987.40
2022-09-21T05:11:03.979Z,987.43
2022-09-21T05:12:03.900Z,987.43
2022-09-21T05:13:03.854Z,987.32
2022-09-21T05:14:02.950Z,987.32
2022-09-21T05:15:02.963Z,987.37
2022-09-21T05:16:03.140Z,987.40
2022-09-21T05:17:03.047Z,987.43
2022-09-21T05:18:02.991Z,987.52
2022-09-21T05:19:03.153Z,987.49
2022-09-21T05:20:03.196Z,987.35
2022-09-21T05:21:03.118Z,987.40
2022-09-21T05:22:03.098Z,987.38
2022-09-21T05:23:03.264Z,987.38
2022-09-21T05:24:03.221Z,987.43
2022-09-21T05:25:03.185Z,987.46
2022-09-21T05:26:03.290Z,987.46
2022-09-21T05:27:03.189Z,987.52
2022-09-21T05:28:03.278Z,987.54
2022-09-21T05:29:03.230Z,987.52
2022-09-21T05:30:03.271Z,987.38
2022-09-21T05:31:18.419Z,987.43
2022-09-21T05:32:03.339Z,987.57
2022-09-21T05:33:03.348Z,987.54
2022-09-21T05:34:03.243Z,987.57
2022-09-21T05:35:03.332Z,987.63
2022-09-21T05:36:03.424Z,987.60
2022-09-21T05:37:03.466Z,987.52
2022-09-21T05:38:03.323Z,987.49
2022-09-21T05:39:03.383Z,987.63
2022-09-21T05:40:03.416Z,987.60
2022-09-21T05:41:03.305Z,987.68
2022-09-21T05:42:03.551Z,987.52
2022-09-21T05:43:03.665Z,987.68
2022-09-21T05:44:03.702Z,987.63
2022-09-21T05:45:03.675Z,987.57
2022-09-21T05:46:03.821Z,987.57
2022-09-21T05:47:03.904Z,987.60
2022-09-21T05:48:03.845Z,987.51
2022-09-21T05:49:02.917Z,987.46
2022-09-21T05:50:03.017Z,987.57
2022-09-21T05:51:03.055Z,987.71
2022-09-21T05:52:02.968Z,987.51
2022-09-21T05:53:02.896Z,987.54
2022-09-21T05:54:02.968Z,987.63
2022-09-21T05:55:03.925Z,987.60
2022-09-21T05:56:02.955Z,987.60
2022-09-21T05:57:03.041Z,987.62
2022-09-21T05:58:03.075Z,987.48
2022-09-21T05:59:03.033Z,987.57
2022-09-21T06:00:03.230Z,987.62
2022-09-21T06:01:03.177Z,987.62
2022-09-21T06:02:03.262Z,987.62
2022-09-21T06:03:03.286Z,987.59
2022-09-21T06:04:03.049Z,987.59
2022-09-21T06:05:03.069Z,987.54
2022-09-21T06:06:03.136Z,987.65
2022-09-21T06:07:03.242Z,987.68
2022-09-21T06:08:03.182Z,987.73
2022-09-21T06:09:03.295Z,987.73
2022-09-21T06:10:03.267Z,987.59
2022-09-21T06:11:03.399Z,987.70
2022-09-21T06:12:03.361Z,987.70
2022-09-21T06:13:03.406Z,987.73
2022-09-21T06:14:03.649Z,987.73
2022-09-21T06:15:03.600Z,987.59
2022-09-21T06:16:03.672Z,987.62
2022-09-21T06:17:03.782Z,987.64
2022-09-21T06:18:03.875Z,987.56
2022-09-21T06:19:03.841Z,987.56
2022-09-21T06:20:02.993Z,987.64
2022-09-21T06:21:02.973Z,987.73
2022-09-21T06:22:02.904Z,987.76
2022-09-21T06:23:03.066Z,987.67
2022-09-21T06:24:03.027Z,987.81
2022-09-21T06:25:03.112Z,987.70
2022-09-21T06:26:03.564Z,987.61
2022-09-21T06:27:03.481Z,987.61
2022-09-21T06:28:03.461Z,987.64
2022-09-21T06:29:03.547Z,987.64
2022-09-21T06:30:03.746Z,987.61
2022-09-21T06:31:03.960Z,987.72
2022-09-21T06:32:03.816Z,987.64
2022-09-21T06:33:03.774Z,987.75
2022-09-21T06:34:03.875Z,987.61
2022-09-21T06:35:03.763Z,987.78
2022-09-21T06:36:03.798Z,987.64
2022-09-21T06:37:03.908Z,987.69
2022-09-21T06:38:03.961Z,987.72
2022-09-21T06:39:02.986Z,987.66
2022-09-21T06:40:03.047Z,987.69
2022-09-21T06:41:03.151Z,987.66
2022-09-21T06:42:03.847Z,987.78
2022-09-21T06:43:03.792Z,987.80
2022-09-21T06:44:03.794Z,987.75
2022-09-21T06:45:03.862Z,987.75
2022-09-21T06:46:03.142Z,987.72
2022-09-21T06:47:02.999Z,987.69
2022-09-21T06:48:03.002Z,987.83
2022-09-21T06:49:02.917Z,987.91
2022-09-21T06:50:03.129Z,987.72
2022-09-21T06:51:03.112Z,987.77
2022-09-21T06:52:03.056Z,987.77
2022-09-21T06:53:03.022Z,987.85
2022-09-21T06:54:03.080Z,988.04
2022-09-21T06:55:03.019Z,987.74
2022-09-21T06:56:03.118Z,987.85
2022-09-21T06:57:03.217Z,987.82
2022-09-21T06:58:03.224Z,987.74
2022-09-21T06:59:03.311Z,987.98
2022-09-21T07:00:03.314Z,987.79
2022-09-21T07:01:03.654Z,987.82
2022-09-21T07:02:03.541Z,987.82
2022-09-21T07:03:03.410Z,987.88
2022-09-21T07:04:03.296Z,987.76
2022-09-21T07:05:03.722Z,987.87
2022-09-21T07:06:03.667Z,987.73
2022-09-21T07:07:05.117Z,987.76
2022-09-21T07:08:04.248Z,987.95
2022-09-21T07:10:07.110Z,988.03
2022-09-21T07:11:03.843Z,987.81
2022-09-21T07:12:02.948Z,988.00
2022-09-21T07:13:03.295Z,987.94
2022-09-21T07:14:03.250Z,987.87
2022-09-21T07:15:03.228Z,987.87
2022-09-21T07:16:03.293Z,987.94
2022-09-21T07:17:03.196Z,987.87
2022-09-21T07:18:06.613Z,988.05
2022-09-21T07:19:12.018Z,987.94
2022-09-21T07:20:03.226Z,988.00
2022-09-21T07:21:03.134Z,987.97
2022-09-21T07:22:03.035Z,988.02
2022-09-21T07:23:03.045Z,988.02
2022-09-21T07:24:03.137Z,987.99
2022-09-21T07:25:03.148Z,988.02
2022-09-21T07:26:03.191Z,988.10
2022-09-21T07:27:03.186Z,988.04
2022-09-21T07:28:03.202Z,988.01
2022-09-21T07:29:03.266Z,987.96
2022-09-21T07:30:03.323Z,987.93
2022-09-21T07:31:03.243Z,987.93
2022-09-21T07:32:03.460Z,988.04
2022-09-21T07:33:03.321Z,988.06
2022-09-21T07:34:03.307Z,988.00
2022-09-21T07:35:03.260Z,988.09
2022-09-21T07:36:03.228Z,988.00
2022-09-21T07:37:03.171Z,988.06
2022-09-21T07:38:03.171Z,987.97
2022-09-21T07:39:03.097Z,988.14
2022-09-21T07:40:03.211Z,987.96
2022-09-21T07:41:03.078Z,987.91
2022-09-21T07:42:03.168Z,987.88
2022-09-21T07:43:03.154Z,988.01
2022-09-21T07:44:03.176Z,987.98
2022-09-21T07:45:05.244Z,988.01
2022-09-21T07:46:03.185Z,988.04
2022-09-21T07:47:03.122Z,988.18
2022-09-21T07:48:03.109Z,988.12
2022-09-21T07:49:03.176Z,988.09
2022-09-21T07:50:03.279Z,988.17
2022-09-21T07:51:03.215Z,988.00
2022-09-21T07:52:10.560Z,988.11
2022-09-21T07:53:03.358Z,988.08
2022-09-21T07:54:03.379Z,988.05
2022-09-21T07:55:03.488Z,988.08
2022-09-21T07:56:03.430Z,988.05
2022-09-21T07:57:03.655Z,988.26
2022-09-21T07:58:03.512Z,988.15
2022-09-21T07:59:03.592Z,988.10
2022-09-21T08:00:03.701Z,988.09
2022-09-21T08:01:03.799Z,988.15
2022-09-21T08:02:03.755Z,988.15
2022-09-21T08:03:03.671Z,988.15
2022-09-21T08:04:03.754Z,988.14
2022-09-21T08:05:03.848Z,988.26
2022-09-21T08:06:03.898Z,988.25
2022-09-21T08:07:02.973Z,988.19
2022-09-21T08:08:02.982Z,988.22
2022-09-21T08:09:03.071Z,988.13
2022-09-21T08:10:03.138Z,988.16
2022-09-21T08:11:03.078Z,988.26
2022-09-21T08:12:03.049Z,988.32
2022-09-21T08:13:03.103Z,988.32
2022-09-21T08:14:03.041Z,988.26
2022-09-21T08:15:03.148Z,988.29
2022-09-21T08:16:03.263Z,988.28
2022-09-21T08:17:03.184Z,988.28
2022-09-21T08:18:03.365Z,988.31
2022-09-21T08:19:03.295Z,988.31
2022-09-21T08:20:03.354Z,988.37
2022-09-21T08:21:03.322Z,988.31
2022-09-21T08:22:03.404Z,988.48
2022-09-21T08:23:03.450Z,988.26
2022-09-21T08:24:03.525Z,988.36
2022-09-21T08:25:03.484Z,988.45
2022-09-21T08:26:03.522Z,988.39
2022-09-21T08:27:03.456Z,988.33
2022-09-21T08:28:10.081Z,988.44
2022-09-21T08:29:03.556Z,988.30
2022-09-21T08:30:03.610Z,988.35
2022-09-21T08:31:03.736Z,988.35
2022-09-21T08:32:03.900Z,988.44
2022-09-21T08:33:03.621Z,988.16
2022-09-21T08:34:03.628Z,988.32
2022-09-21T08:35:03.802Z,988.35
2022-09-21T08:36:03.753Z,988.35
2022-09-21T08:37:03.699Z,988.46
2022-09-21T08:38:03.750Z,988.54
2022-09-21T08:39:03.763Z,988.37
2022-09-21T08:40:03.943Z,988.37
2022-09-21T08:41:03.845Z,988.34
2022-09-21T08:42:02.952Z,988.57
2022-09-21T08:43:03.915Z,988.48
2022-09-21T08:44:02.954Z,988.45
2022-09-21T08:45:03.045Z,988.42
2022-09-21T08:46:03.118Z,988.39
2022-09-21T08:47:03.309Z,988.50
2022-09-21T08:48:03.322Z,988.65
2022-09-21T08:49:03.744Z,988.42
2022-09-21T08:50:03.614Z,988.47
2022-09-21T08:51:03.699Z,988.53
2022-09-21T08:52:03.660Z,988.64
2022-09-21T08:53:03.873Z,988.61
2022-09-21T08:54:03.769Z,988.64
2022-09-21T08:55:03.801Z,988.61
2022-09-21T08:56:03.789Z,988.64
2022-09-21T08:57:06.191Z,988.70
2022-09-21T08:58:03.793Z,988.58
2022-09-21T08:59:02.976Z,988.64
2022-09-21T09:00:02.990Z,988.75
2022-09-21T09:01:07.498Z,988.61
2022-09-21T09:02:04.035Z,988.69
2022-09-21T09:03:03.940Z,988.67
2022-09-21T09:04:05.921Z,988.84
2022-09-21T09:05:03.872Z,988.78
2022-09-21T09:06:02.953Z,988.63
2022-09-21T09:07:02.943Z,988.78
2022-09-21T09:08:02.945Z,988.80
2022-09-21T09:09:03.041Z,988.77
2022-09-21T09:10:03.008Z,988.63
2022-09-21T09:11:02.997Z,988.63
2022-09-21T09:12:10.806Z,988.63
2022-09-21T09:13:02.992Z,988.77
2022-09-21T09:14:02.967Z,988.77
2022-09-21T09:15:02.918Z,988.83
2022-09-21T09:16:04.014Z,988.68
2022-09-21T09:17:03.018Z,988.60
2022-09-21T09:18:03.021Z,988.74
2022-09-21T09:19:03.077Z,988.65
2022-09-21T09:20:03.816Z,988.85
2022-09-21T09:21:03.891Z,988.65
2022-09-21T09:22:03.905Z,988.65
2022-09-21T09:23:02.913Z,988.65
2022-09-21T09:24:02.954Z,988.76
2022-09-21T09:25:03.072Z,988.76
2022-09-21T09:26:03.455Z,988.70
2022-09-21T09:27:03.633Z,988.67
2022-09-21T09:28:03.541Z,988.58
2022-09-21T09:29:03.712Z,988.61
2022-09-21T09:30:04.443Z,988.73
2022-09-21T09:31:03.854Z,988.67
2022-09-21T09:32:03.709Z,988.67
2022-09-21T09:33:03.810Z,988.58
2022-09-21T09:34:03.814Z,988.64
2022-09-21T09:35:03.774Z,988.69
2022-09-21T09:36:03.788Z,988.69
2022-09-21T09:37:03.888Z,988.78
2022-09-21T09:38:03.751Z,988.72
2022-09-21T09:39:03.882Z,988.72
2022-09-21T09:40:03.140Z,988.83
2022-09-21T09:41:02.982Z,988.83
2022-09-21T09:42:03.532Z,988.89
2022-09-21T09:43:05.362Z,988.77
2022-09-21T09:44:03.586Z,988.83
2022-09-21T09:45:03.734Z,988.88
2022-09-21T09:46:03.724Z,988.68
2022-09-21T09:47:04.038Z,988.88
2022-09-21T09:48:02.984Z,988.74
2022-09-21T09:49:02.919Z,988.88
2022-09-21T09:50:02.934Z,988.76
2022-09-21T09:51:03.094Z,988.76
2022-09-21T09:52:03.139Z,988.73
2022-09-21T09:53:03.124Z,988.85
2022-09-21T09:54:10.181Z,988.85
2022-09-21T09:55:03.195Z,988.79
2022-09-21T09:56:03.184Z,988.87
2022-09-21T09:57:03.199Z,988.82
2022-09-21T09:58:03.244Z,988.82
2022-09-21T09:59:03.165Z,988.84
2022-09-21T10:00:03.280Z,988.84
2022-09-21T10:01:03.420Z,988.90
2022-09-21T10:02:03.531Z,988.87
2022-09-21T10:03:03.311Z,988.87
2022-09-21T10:04:03.195Z,988.87
2022-09-21T10:05:04.320Z,988.89
2022-09-21T10:06:03.389Z,988.81
2022-09-21T10:07:03.438Z,988.89
2022-09-21T10:08:03.352Z,988.86
2022-09-21T10:09:03.417Z,988.69
2022-09-21T10:10:03.493Z,988.80
2022-09-21T10:11:03.522Z,988.80
2022-09-21T10:12:10.367Z,988.74
2022-09-21T10:13:03.236Z,988.83
2022-09-21T10:14:03.359Z,988.77
2022-09-21T10:15:03.496Z,988.74
2022-09-21T10:16:03.529Z,988.88
2022-09-21T10:17:03.489Z,988.85
2022-09-21T10:18:03.510Z,988.82
2022-09-21T10:19:03.658Z,988.82
2022-09-21T10:20:03.591Z,988.79
2022-09-21T10:21:03.639Z,988.71
2022-09-21T10:22:03.627Z,988.82
2022-09-21T10:23:03.770Z,988.79
2022-09-21T10:24:03.885Z,988.85
2022-09-21T10:25:03.047Z,988.79
2022-09-21T10:26:03.116Z,988.82
2022-09-21T10:27:03.119Z,988.85
2022-09-21T10:28:03.107Z,988.97
2022-09-21T10:29:03.042Z,988.94
2022-09-21T10:30:03.159Z,988.91
2022-09-21T10:31:03.311Z,988.80
2022-09-21T10:32:03.267Z,988.89
2022-09-21T10:33:03.177Z,988.89
2022-09-21T10:34:03.145Z,989.03
2022-09-21T10:35:03.215Z,988.95
2022-09-21T10:36:03.122Z,988.95
2022-09-21T10:37:03.173Z,988.95
2022-09-21T10:38:03.364Z,989.01
2022-09-21T10:39:03.375Z,988.93
2022-09-21T10:40:03.406Z,988.93
2022-09-21T10:41:03.390Z,988.84
2022-09-21T10:42:03.372Z,988.93
2022-09-21T10:43:03.289Z,989.05
2022-09-21T10:44:03.302Z,988.96
2022-09-21T10:45:03.292Z,988.90
2022-09-21T10:46:03.322Z,988.99
2022-09-21T10:47:03.395Z,989.05
2022-09-21T10:48:03.404Z,988.85
2022-09-21T10:49:03.458Z,989.08
2022-09-21T10:50:03.397Z,988.99
2022-09-21T10:51:03.563Z,988.99
2022-09-21T10:52:03.638Z,988.97
2022-09-21T10:53:03.737Z,988.97
2022-09-21T10:54:03.672Z,988.91
2022-09-21T10:55:03.629Z,989.03
2022-09-21T10:56:17.268Z,989.00
2022-09-21T10:57:03.871Z,988.97
2022-09-21T10:58:03.814Z,989.00
2022-09-21T10:59:02.886Z,989.08
2022-09-21T11:00:02.967Z,989.06
2022-09-21T11:01:03.028Z,989.11
2022-09-21T11:02:03.270Z,988.91
2022-09-21T11:03:03.251Z,989.00
2022-09-21T11:04:03.158Z,988.97
2022-09-21T11:05:03.186Z,988.91
2022-09-21T11:06:03.193Z,988.96
2022-09-21T11:07:03.289Z,988.87
2022-09-21T11:08:03.379Z,988.87
2022-09-21T11:09:03.445Z,988.93
2022-09-21T11:10:03.547Z,988.78
2022-09-21T11:11:03.528Z,988.66
2022-09-21T11:12:03.570Z,988.81
2022-09-21T11:13:03.638Z,988.89
2022-09-21T11:14:03.826Z,988.83
2022-09-21T11:15:03.780Z,988.83
2022-09-21T11:16:03.882Z,988.83
2022-09-21T11:17:03.913Z,988.95
2022-09-21T11:18:02.987Z,988.89
2022-09-21T11:19:02.947Z,989.06
2022-09-21T11:20:02.997Z,989.12
2022-09-21T11:21:03.042Z,988.95
2022-09-21T11:22:02.966Z,989.15
2022-09-21T11:23:02.945Z,989.15
2022-09-21T11:24:03.026Z,988.98
2022-09-21T11:25:03.151Z,989.07
2022-09-21T11:26:03.084Z,989.16
2022-09-21T11:27:03.135Z,989.24
2022-09-21T11:28:03.111Z,989.24
2022-09-21T11:29:03.177Z,989.36
2022-09-21T11:30:03.282Z,989.24
2022-09-21T11:31:03.380Z,989.27
2022-09-21T11:32:06.448Z,989.19
2022-09-21T11:33:03.442Z,989.10
2022-09-21T11:34:03.497Z,989.15
2022-09-21T11:35:03.482Z,989.18
2022-09-21T11:36:03.461Z,989.04
2022-09-21T11:37:03.398Z,989.06
2022-09-21T11:38:03.596Z,989.06
2022-09-21T11:39:03.628Z,989.12
2022-09-21T11:40:03.691Z,989.15
2022-09-21T11:41:03.703Z,989.12
2022-09-21T11:42:03.797Z,989.06
2022-09-21T11:43:03.633Z,989.14
2022-09-21T11:44:04.775Z,989.09
2022-09-21T11:45:03.744Z,989.11
2022-09-21T11:46:03.865Z,989.11
2022-09-21T11:47:03.779Z,989.09
2022-09-21T11:48:03.897Z,989.00
2022-09-21T11:49:03.839Z,988.91
2022-09-21T11:50:30.837Z,989.00
2022-09-21T11:51:03.834Z,989.05
2022-09-21T11:52:02.915Z,988.97
2022-09-21T11:53:02.910Z,989.08
2022-09-21T11:54:02.947Z,988.88
2022-09-21T11:55:03.101Z,988.99
2022-09-21T11:56:03.115Z,988.96
2022-09-21T11:57:03.204Z,989.08
2022-09-21T11:58:03.138Z,988.90
2022-09-21T11:59:03.180Z,988.99
2022-09-21T12:00:03.176Z,989.10
2022-09-21T12:01:03.194Z,989.05
2022-09-21T12:02:03.450Z,989.04
2022-09-21T12:03:03.384Z,988.99
2022-09-21T12:04:03.336Z,989.13
2022-09-21T12:05:03.398Z,989.22
2022-09-21T12:06:03.341Z,989.13
2022-09-21T12:07:03.397Z,989.16
2022-09-21T12:08:03.340Z,989.10
2022-09-21T12:09:03.555Z,989.13
2022-09-21T12:10:10.293Z,988.96
2022-09-21T12:11:03.555Z,989.10
2022-09-21T12:12:03.685Z,989.30
2022-09-21T12:13:03.651Z,989.19
2022-09-21T12:14:03.647Z,989.19
2022-09-21T12:15:03.838Z,989.27
2022-09-21T12:16:03.749Z,989.19
2022-09-21T12:17:06.204Z,989.25
2022-09-21T12:18:03.862Z,989.25
2022-09-21T12:19:03.809Z,989.31
2022-09-21T12:20:02.921Z,989.28
2022-09-21T12:21:02.994Z,989.28
2022-09-21T12:22:03.004Z,989.25
2022-09-21T12:23:03.307Z,989.31
2022-09-21T12:24:03.172Z,989.19
2022-09-21T12:25:03.167Z,989.34
2022-09-21T12:26:03.238Z,989.22
2022-09-21T12:27:03.131Z,989.17
2022-09-21T12:28:03.232Z,989.25
2022-09-21T12:29:03.255Z,989.11